createdAt,value
2018-07-28T00:00:30.653Z,100644.76
2018-07-28T00:02:59.622Z,100638.51
2018-07-28T00:05:28.662Z,100637.88
2018-07-28T00:07:57.578Z,100632.81
2018-07-28T00:10:26.590Z,100630.93
2018-07-28T00:12:56.496Z,100630.72
2018-07-28T00:15:25.500Z,100619.45
2018-07-28T00:17:54.461Z,100624.66
2018-07-28T00:20:23.345Z,100627.55
2018-07-28T00:22:52.277Z,100641.94
2018-07-28T00:25:21.245Z,100620.27
2018-07-28T00:27:50.238Z,100622.82
2018-07-28T00:30:19.240Z,100614.28
2018-07-28T00:32:49.158Z,100620.28
2018-07-28T00:35:18.144Z,100607.78
2018-07-28T00:37:47.233Z,100603.31
2018-07-28T00:40:16.135Z,100603.66
2018-07-28T00:42:45.042Z,100602.13
2018-07-28T00:45:14.042Z,100587.42
2018-07-28T00:47:43.026Z,100579.21
2018-07-28T00:50:11.944Z,100592.03
2018-07-28T00:52:40.946Z,100604.85
2018-07-28T00:55:09.831Z,100624.38
2018-07-28T00:57:38.826Z,100640.79
2018-07-28T01:00:08.530Z,100652.93
2018-07-28T01:02:37.778Z,100664.41
2018-07-28T01:05:07.254Z,100684.77
2018-07-28T01:07:36.326Z,100682.18
2018-07-28T01:10:06.282Z,100699.09
2018-07-28T01:12:35.326Z,100695.88
2018-07-28T01:15:05.164Z,100692.77
2018-07-28T01:17:34.218Z,100686.52
2018-07-28T01:20:03.213Z,100703.05
2018-07-28T01:22:32.130Z,100699.27
2018-07-28T01:25:01.038Z,100705.05
2018-07-28T01:27:29.920Z,100694.81
2018-07-28T01:29:58.842Z,100701.29
2018-07-28T01:32:27.776Z,100700.48
2018-07-28T01:34:56.686Z,100694.66
2018-07-28T01:37:25.638Z,100698.83
2018-07-28T01:39:54.685Z,100686.78
2018-07-28T01:42:23.555Z,100682.86
2018-07-28T01:44:52.579Z,100701.19
2018-07-28T01:47:21.517Z,100707.55
2018-07-28T01:49:50.499Z,100710.41
2018-07-28T01:52:19.588Z,100721.91
2018-07-28T01:54:48.442Z,100718.65
2018-07-28T01:57:17.361Z,100725.84
2018-07-28T01:59:46.382Z,100721.84
2018-07-28T02:02:15.241Z,100713.94
2018-07-28T02:04:44.135Z,100723.41
2018-07-28T02:07:13.083Z,100718.42
2018-07-28T02:09:41.987Z,100708.39
2018-07-28T02:12:10.949Z,100716.21
2018-07-28T02:14:39.883Z,100724.78
2018-07-28T02:17:08.823Z,100729.72
2018-07-28T02:19:37.754Z,100738.76
2018-07-28T02:22:06.707Z,100735.97
2018-07-28T02:24:35.687Z,100716.25
2018-07-28T02:27:04.671Z,100706.02
2018-07-28T02:29:33.559Z,100691.53
2018-07-28T02:32:02.443Z,100673.74
2018-07-28T02:34:31.342Z,100674.10
2018-07-28T02:37:00.267Z,100674.77
2018-07-28T02:39:29.168Z,100657.88
2018-07-28T02:41:58.146Z,100654.84
2018-07-28T02:44:27.101Z,100657.03
2018-07-28T02:46:56.011Z,100644.55
2018-07-28T02:49:25.026Z,100639.78
2018-07-28T02:51:53.940Z,100634.97
2018-07-28T02:54:22.968Z,100631.86
2018-07-28T02:56:52.169Z,100610.50
2018-07-28T02:59:21.299Z,100600.42
2018-07-28T03:01:50.548Z,100592.53
2018-07-28T03:04:19.763Z,100582.97
2018-07-28T03:06:48.960Z,100583.17
2018-07-28T03:09:18.180Z,100579.37
2018-07-28T03:11:47.274Z,100576.13
2018-07-28T03:14:16.492Z,100566.72
2018-07-28T03:16:45.696Z,100556.93
2018-07-28T03:19:15.044Z,100544.65
2018-07-28T03:21:44.231Z,100538.66
2018-07-28T03:24:13.608Z,100526.86
2018-07-28T03:26:42.894Z,100526.86
2018-07-28T03:29:12.265Z,100529.91
2018-07-28T03:31:41.417Z,100540.17
2018-07-28T03:34:10.724Z,100541.74
2018-07-28T03:36:39.864Z,100549.39
2018-07-28T03:39:10.466Z,100542.16
2018-07-28T03:41:39.657Z,100536.94
2018-07-28T03:44:08.970Z,100534.49
2018-07-28T03:46:38.817Z,100530.53
2018-07-28T03:49:13.631Z,100529.98
2018-07-28T03:51:48.269Z,100533.45
2018-07-28T03:54:17.379Z,100540.27
2018-07-28T03:56:46.458Z,100526.70
2018-07-28T03:59:16.468Z,100518.44
2018-07-28T04:01:45.753Z,100520.85
2018-07-28T04:04:14.926Z,100524.23
2018-07-28T04:06:44.253Z,100497.88
2018-07-28T04:09:13.464Z,100495.08
2018-07-28T04:11:42.551Z,100504.12
2018-07-28T04:14:11.649Z,100522.84
2018-07-28T04:16:40.725Z,100557.09
2018-07-28T04:19:09.950Z,100558.91
2018-07-28T04:21:39.071Z,100555.37
2018-07-28T04:24:08.319Z,100565.23
2018-07-28T04:26:37.621Z,100562.84
2018-07-28T04:29:07.726Z,100571.20
2018-07-28T04:36:14.653Z,100574.53
2018-07-28T04:38:43.786Z,100583.08
2018-07-28T04:41:12.961Z,100589.33
2018-07-28T04:43:42.015Z,100588.43
2018-07-28T04:46:12.524Z,100601.53
2018-07-28T04:48:41.651Z,100615.25
2018-07-28T04:51:10.829Z,100626.80
2018-07-28T04:53:39.877Z,100624.22
2018-07-28T04:56:08.941Z,100624.94
2018-07-28T04:58:38.117Z,100622.50
2018-07-28T05:01:07.199Z,100628.67
2018-07-28T05:03:36.279Z,100637.86
2018-07-28T05:06:05.184Z,100632.57
2018-07-28T05:08:34.177Z,100605.73
2018-07-28T05:11:03.269Z,100577.48
2018-07-28T05:13:32.251Z,100578.86
2018-07-28T05:16:01.191Z,100580.33
2018-07-28T05:18:30.155Z,100580.05
2018-07-28T05:20:59.092Z,100575.77
2018-07-28T05:23:28.025Z,100603.16
2018-07-28T05:25:56.911Z,100608.79
2018-07-28T05:28:25.908Z,100611.02
2018-07-28T05:30:54.947Z,100614.78
2018-07-28T05:33:23.915Z,100602.50
2018-07-28T05:35:52.794Z,100590.67
2018-07-28T05:38:22.064Z,100589.45
2018-07-28T05:40:50.981Z,100549.75
2018-07-28T05:43:20.002Z,100531.75
2018-07-28T05:45:49.117Z,100529.94
2018-07-28T05:48:18.072Z,100512.55
2018-07-28T05:50:47.151Z,100512.23
2018-07-28T05:53:16.082Z,100525.50
2018-07-28T05:55:45.053Z,100536.50
2018-07-28T05:58:14.050Z,100551.52
2018-07-28T06:00:43.013Z,100553.94
2018-07-28T06:03:11.946Z,100552.72
2018-07-28T06:05:40.911Z,100558.71
2018-07-28T06:08:09.942Z,100555.05
2018-07-28T06:10:39.010Z,100565.63
2018-07-28T06:13:07.916Z,100563.78
2018-07-28T06:15:36.916Z,100564.46
2018-07-28T06:18:05.905Z,100551.45
2018-07-28T06:20:34.872Z,100559.37
2018-07-28T06:23:04.102Z,100554.17
2018-07-28T06:25:33.341Z,100544.25
2018-07-28T06:28:02.430Z,100524.63
2018-07-28T06:30:31.520Z,100524.50
2018-07-28T06:33:00.412Z,100538.95
2018-07-28T06:35:29.402Z,100533.00
2018-07-28T06:37:58.377Z,100527.20
2018-07-28T06:40:27.388Z,100523.29
2018-07-28T06:42:56.404Z,100528.90
2018-07-28T06:45:25.437Z,100521.66
2018-07-28T06:47:54.411Z,100517.24
2018-07-28T06:50:23.374Z,100511.46
2018-07-28T06:52:52.351Z,100506.84
2018-07-28T06:55:21.332Z,100506.04
2018-07-28T06:57:51.325Z,100507.42
2018-07-28T07:00:20.444Z,100506.22
2018-07-28T07:02:49.415Z,100513.19
2018-07-28T07:05:18.360Z,100519.73
2018-07-28T07:07:47.278Z,100538.49
2018-07-28T07:10:16.159Z,100535.56
2018-07-28T07:12:45.080Z,100533.05
2018-07-28T07:15:14.096Z,100532.55
2018-07-28T07:17:43.043Z,100541.26
2018-07-28T07:20:11.928Z,100551.12
2018-07-28T07:22:40.913Z,100558.23
2018-07-28T07:25:10.387Z,100567.27
2018-07-28T07:27:39.364Z,100577.73
2018-07-28T07:30:08.398Z,100585.55
2018-07-28T07:32:37.344Z,100588.18
2018-07-28T07:35:06.231Z,100595.22
2018-07-28T07:37:35.146Z,100601.37
2018-07-28T07:40:04.064Z,100596.22
2018-07-28T07:42:32.999Z,100597.79
2018-07-28T07:45:02.120Z,100596.22
2018-07-28T07:47:31.223Z,100602.01
2018-07-28T07:50:00.206Z,100589.83
2018-07-28T07:52:29.204Z,100589.33
2018-07-28T07:54:58.170Z,100601.11
2018-07-28T07:57:27.166Z,100600.78
2018-07-28T07:59:56.224Z,100608.30
2018-07-28T08:02:25.150Z,100607.95
2018-07-28T08:04:54.200Z,100595.96
2018-07-28T08:07:23.180Z,100593.06
2018-07-28T08:09:52.751Z,100596.98
2018-07-28T08:12:21.860Z,100598.33
2018-07-28T08:14:50.824Z,100602.02
2018-07-28T08:17:19.838Z,100598.50
2018-07-28T08:19:48.796Z,100600.41
2018-07-28T08:22:18.150Z,100597.00
2018-07-28T08:24:47.089Z,100600.58
2018-07-28T08:27:16.026Z,100602.36
2018-07-28T08:29:45.009Z,100596.13
2018-07-28T08:32:14.738Z,100601.72
2018-07-28T08:34:43.700Z,100600.67
2018-07-28T08:37:12.796Z,100603.41
2018-07-28T08:39:41.822Z,100599.00
2018-07-28T08:42:10.929Z,100600.05
2018-07-28T08:44:40.960Z,100607.20
2018-07-28T08:47:10.421Z,100606.11
2018-07-28T08:49:39.480Z,100611.94
2018-07-28T08:52:08.593Z,100607.84
2018-07-28T08:54:37.552Z,100622.64
2018-07-28T08:57:06.544Z,100617.12
2018-07-28T08:59:35.525Z,100619.55
2018-07-28T09:02:04.526Z,100611.68
2018-07-28T09:04:33.464Z,100613.81
2018-07-28T09:07:02.515Z,100615.67
2018-07-28T09:09:31.505Z,100615.48
2018-07-28T09:12:00.668Z,100614.38
2018-07-28T09:14:29.644Z,100614.97
2018-07-28T09:16:58.616Z,100614.34
2018-07-28T09:19:27.560Z,100619.46
2018-07-28T09:21:56.442Z,100619.46
2018-07-28T09:24:25.383Z,100613.81
2018-07-28T09:26:54.406Z,100622.77
2018-07-28T09:29:23.374Z,100620.63
2018-07-28T09:31:52.389Z,100619.60
2018-07-28T09:34:21.366Z,100628.53
2018-07-28T09:36:50.405Z,100624.27
2018-07-28T09:39:19.366Z,100628.73
2018-07-28T09:41:48.296Z,100629.05
2018-07-28T09:44:17.243Z,100639.32
2018-07-28T09:46:46.360Z,100636.58
2018-07-28T09:49:15.351Z,100635.51
2018-07-28T09:51:44.547Z,100636.01
2018-07-28T09:54:13.619Z,100638.07
2018-07-28T09:56:42.653Z,100637.70
2018-07-28T09:59:11.646Z,100637.28
2018-07-28T10:01:40.788Z,100650.29
2018-07-28T10:04:09.880Z,100645.11
2018-07-28T10:06:39.042Z,100647.84
2018-07-28T10:09:10.161Z,100641.77
2018-07-28T10:11:39.196Z,100625.27
2018-07-28T10:14:08.361Z,100642.95
2018-07-28T10:16:37.475Z,100633.09
2018-07-28T10:19:06.456Z,100638.09
2018-07-28T10:21:35.568Z,100630.75
2018-07-28T10:24:04.540Z,100640.03
2018-07-28T10:26:33.443Z,100627.28
2018-07-28T10:29:02.472Z,100632.09
2018-07-28T10:31:31.453Z,100628.52
2018-07-28T10:34:00.413Z,100638.52
2018-07-28T10:36:29.568Z,100642.70
2018-07-28T10:38:58.486Z,100653.44
2018-07-28T10:41:27.503Z,100674.09
2018-07-28T10:43:56.501Z,100667.28
2018-07-28T10:46:25.445Z,100666.17
2018-07-28T10:48:54.410Z,100661.52
2018-07-28T10:51:23.366Z,100655.16
2018-07-28T10:53:52.242Z,100668.33
2018-07-28T10:56:21.152Z,100658.38
2018-07-28T10:58:51.175Z,100664.36
2018-07-28T11:01:20.171Z,100659.61
2018-07-28T11:03:49.143Z,100670.55
2018-07-28T11:06:18.168Z,100674.62
2018-07-28T11:08:47.211Z,100668.14
2018-07-28T11:11:18.274Z,100670.89
2018-07-28T11:13:47.344Z,100674.16
2018-07-28T11:16:16.550Z,100664.39
2018-07-28T11:18:45.561Z,100671.41
2018-07-28T11:21:14.443Z,100666.10
2018-07-28T11:23:51.383Z,100669.88
2018-07-28T11:26:21.465Z,100680.63
2018-07-28T11:28:51.269Z,100685.27
2018-07-28T11:31:31.851Z,100704.41
2018-07-28T11:34:12.068Z,100730.59
2018-07-28T11:36:52.911Z,100737.61
2018-07-28T11:39:33.215Z,100745.14
2018-07-28T11:42:13.542Z,100756.05
2018-07-28T11:44:53.859Z,100740.74
2018-07-28T11:47:22.839Z,100759.73
2018-07-28T11:49:51.839Z,100749.63
2018-07-28T11:52:20.782Z,100744.01
2018-07-28T11:54:49.809Z,100763.98
2018-07-28T11:57:18.794Z,100766.78
2018-07-28T11:59:47.879Z,100770.88
2018-07-28T12:02:16.787Z,100768.98
2018-07-28T12:04:45.879Z,100770.98
2018-07-28T12:07:14.711Z,100780.99
2018-07-28T12:09:43.639Z,100784.08
2018-07-28T12:12:12.547Z,100777.72
2018-07-28T12:14:41.587Z,100789.19
2018-07-28T12:17:10.511Z,100796.95
2018-07-28T12:19:39.625Z,100787.89
2018-07-28T12:22:08.709Z,100804.53
2018-07-28T12:24:37.718Z,100797.22
2018-07-28T12:27:06.815Z,100810.27
2018-07-28T12:29:35.705Z,100814.27
2018-07-28T12:32:04.906Z,100805.33
2018-07-28T12:34:33.773Z,100819.87
2018-07-28T12:37:02.880Z,100827.60
2018-07-28T12:39:31.751Z,100827.91
2018-07-28T12:42:00.672Z,100839.65
2018-07-28T12:44:29.667Z,100840.25
2018-07-28T12:46:58.632Z,100834.50
2018-07-28T12:49:27.605Z,100854.97
2018-07-28T12:51:56.576Z,100831.83
2018-07-28T12:54:25.543Z,100841.97
2018-07-28T12:56:54.522Z,100842.39
2018-07-28T12:59:23.547Z,100843.45
2018-07-28T13:01:52.415Z,100848.17
2018-07-28T13:04:21.429Z,100853.05
2018-07-28T13:06:50.513Z,100856.83
2018-07-28T13:09:19.400Z,100862.48
2018-07-28T13:11:48.320Z,100863.55
2018-07-28T13:14:17.385Z,100866.70
2018-07-28T13:16:46.231Z,100872.20
2018-07-28T13:19:15.149Z,100869.84
2018-07-28T13:21:44.140Z,100862.17
2018-07-28T13:24:13.149Z,100872.47
2018-07-28T13:26:42.035Z,100867.69
2018-07-28T13:29:11.018Z,100875.86
2018-07-28T13:31:40.036Z,100872.28
2018-07-28T13:34:09.019Z,100883.27
2018-07-28T13:36:37.895Z,100875.27
2018-07-28T13:39:07.707Z,100874.88
2018-07-28T13:41:36.667Z,100882.63
2018-07-28T13:44:05.853Z,100863.73
2018-07-28T13:46:34.838Z,100870.43
2018-07-28T13:49:03.977Z,100877.94
2018-07-28T13:51:32.867Z,100877.22
2018-07-28T13:54:01.899Z,100880.61
2018-07-28T13:56:30.864Z,100882.58
2018-07-28T13:59:00.547Z,100887.14
2018-07-28T14:01:29.451Z,100899.91
2018-07-28T14:03:58.511Z,100897.19
2018-07-28T14:06:27.472Z,100898.30
2018-07-28T14:08:58.307Z,100895.56
2018-07-28T14:11:27.307Z,100901.55
2018-07-28T14:13:56.211Z,100898.58
2018-07-28T14:16:25.288Z,100885.30
2018-07-28T14:18:54.634Z,100891.72
2018-07-28T14:21:23.497Z,100897.00
2018-07-28T14:23:52.465Z,100890.30
2018-07-28T14:26:21.457Z,100886.52
2018-07-28T14:28:50.587Z,100883.48
2018-07-28T14:31:19.467Z,100874.61
2018-07-28T14:33:48.440Z,100892.22
2018-07-28T14:36:17.335Z,100880.20
2018-07-28T14:38:46.238Z,100889.20
2018-07-28T14:41:15.147Z,100882.91
2018-07-28T14:43:44.261Z,100883.09
2018-07-28T14:46:13.335Z,100884.55
2018-07-28T14:48:42.406Z,100896.25
2018-07-28T14:51:11.404Z,100893.09
2018-07-28T14:53:40.336Z,100895.96
2018-07-28T14:56:09.488Z,100900.55
2018-07-28T14:58:38.602Z,100907.69
2018-07-28T15:01:07.611Z,100898.98
2018-07-28T15:03:36.561Z,100897.95
2018-07-28T15:06:05.466Z,100902.17
2018-07-28T15:08:34.350Z,100905.20
2018-07-28T15:11:03.382Z,100908.06
2018-07-28T15:13:32.258Z,100921.13
2018-07-28T15:16:01.238Z,100932.74
2018-07-28T15:18:30.225Z,100924.81
2018-07-28T15:20:59.315Z,100936.36
2018-07-28T15:23:28.267Z,100940.55
2018-07-28T15:25:57.243Z,100941.45
2018-07-28T15:28:26.131Z,100937.63
2018-07-28T15:30:55.241Z,100945.84
2018-07-28T15:33:24.179Z,100949.97
2018-07-28T15:35:53.431Z,100939.68
2018-07-28T15:38:22.470Z,100955.83
2018-07-28T15:40:51.378Z,100937.75
2018-07-28T15:43:20.456Z,100947.51
2018-07-28T15:45:49.456Z,100950.69
2018-07-28T15:48:18.452Z,100954.73
2018-07-28T15:50:47.488Z,100950.61
2018-07-28T15:53:16.445Z,100964.03
2018-07-28T15:55:45.345Z,100935.67
2018-07-28T15:58:14.245Z,100960.20
2018-07-28T16:00:43.207Z,100966.52
2018-07-28T16:03:12.118Z,100965.23
2018-07-28T16:05:41.096Z,100971.12
2018-07-28T16:08:10.076Z,100973.27
2018-07-28T16:10:38.985Z,100976.05
2018-07-28T16:13:07.971Z,100978.63
2018-07-28T16:15:37.015Z,100983.01
2018-07-28T16:18:07.033Z,100987.80
2018-07-28T16:20:42.754Z,100981.05
2018-07-28T16:23:12.939Z,100991.12
2018-07-28T16:25:41.865Z,100980.94
2018-07-28T16:28:10.883Z,100987.62
2018-07-28T16:30:39.845Z,100990.91
2018-07-28T16:33:08.931Z,100979.56
2018-07-28T16:35:37.868Z,100984.34
2018-07-28T16:38:06.820Z,100988.50
2018-07-28T16:40:41.247Z,100995.45
2018-07-28T16:43:10.296Z,100996.59
2018-07-28T16:45:39.235Z,100998.02
2018-07-28T16:48:08.227Z,101000.05
2018-07-28T16:50:37.155Z,100991.52
2018-07-28T16:53:06.071Z,101002.93
2018-07-28T16:55:37.213Z,101013.08
2018-07-28T16:58:06.125Z,101001.45
2018-07-28T17:00:35.108Z,101020.77
2018-07-28T17:03:03.996Z,101008.55
2018-07-28T17:05:32.891Z,101021.61
2018-07-28T17:08:01.887Z,101028.87
2018-07-28T17:10:30.807Z,101020.58
2018-07-28T17:12:59.991Z,101027.27
2018-07-28T17:15:28.874Z,101029.81
2018-07-28T17:17:57.764Z,101033.45
2018-07-28T17:20:26.758Z,101035.67
2018-07-28T17:22:55.648Z,101035.41
2018-07-28T17:25:24.653Z,101044.55
2018-07-28T17:27:53.564Z,101045.06
2018-07-28T17:30:22.424Z,101036.02
2018-07-28T17:32:51.523Z,101042.77
2018-07-28T17:35:20.623Z,101051.59
2018-07-28T17:37:50.029Z,101050.45
2018-07-28T17:40:18.955Z,101067.77
2018-07-28T17:42:47.871Z,101050.11
2018-07-28T17:45:16.798Z,101050.48
2018-07-28T17:47:45.812Z,101065.17
2018-07-28T17:50:14.847Z,101072.70
2018-07-28T17:52:43.820Z,101061.88
2018-07-28T17:55:12.808Z,101066.89
2018-07-28T17:57:41.761Z,101071.22
2018-07-28T18:00:10.956Z,101065.52
2018-07-28T18:02:39.990Z,101071.30
2018-07-28T18:05:09.057Z,101064.69
2018-07-28T18:07:38.065Z,101073.03
2018-07-28T18:10:07.079Z,101073.59
2018-07-28T18:12:36.066Z,101081.53
2018-07-28T18:15:05.060Z,101083.41
2018-07-28T18:17:33.962Z,101084.64
2018-07-28T18:20:02.861Z,101070.80
2018-07-28T18:22:31.811Z,101090.80
2018-07-28T18:25:00.755Z,101096.91
2018-07-28T18:27:30.464Z,101094.19
2018-07-28T18:29:59.366Z,101105.01
2018-07-28T18:32:28.260Z,101101.05
2018-07-28T18:34:57.400Z,101103.12
2018-07-28T18:37:26.386Z,101110.75
2018-07-28T18:39:55.266Z,101107.23
2018-07-28T18:42:24.162Z,101106.24
2018-07-28T18:44:53.045Z,101110.67
2018-07-28T18:47:21.928Z,101116.73
2018-07-28T18:49:50.914Z,101114.05
2018-07-28T18:52:19.796Z,101129.77
2018-07-28T18:54:48.820Z,101131.09
2018-07-28T18:57:17.665Z,101126.13
2018-07-28T18:59:46.635Z,101136.02
2018-07-28T19:02:15.536Z,101135.89
2018-07-28T19:04:45.338Z,101149.98
2018-07-28T19:07:14.271Z,101154.97
2018-07-28T19:09:49.199Z,101143.75
2018-07-28T19:12:22.422Z,101144.79
2018-07-28T19:14:51.507Z,101148.36
2018-07-28T19:17:20.511Z,101151.54
2018-07-28T19:19:49.475Z,101161.20
2018-07-28T19:22:23.619Z,101150.10
2018-07-28T19:24:52.508Z,101165.17
2018-07-28T19:27:21.502Z,101161.14
2018-07-28T19:29:50.603Z,101157.11
2018-07-28T19:32:19.592Z,101170.95
2018-07-28T19:34:48.623Z,101173.44
2018-07-28T19:37:20.862Z,101182.47
2018-07-28T19:39:49.951Z,101183.28
2018-07-28T19:42:24.236Z,101181.82
2018-07-28T19:44:53.196Z,101175.91
2018-07-28T19:47:22.153Z,101181.19
2018-07-28T19:49:51.027Z,101169.83
2018-07-28T19:52:20.158Z,101180.11
2018-07-28T19:54:50.320Z,101180.70
2018-07-28T19:57:20.491Z,101191.67
2018-07-28T19:59:49.499Z,101191.08
2018-07-28T20:02:18.370Z,101193.61
2018-07-28T20:04:47.361Z,101200.77
2018-07-28T20:07:16.329Z,101206.52
2018-07-28T20:09:45.254Z,101208.14
2018-07-28T20:12:14.145Z,101210.94
2018-07-28T20:14:43.124Z,101203.08
2018-07-28T20:17:12.226Z,101210.54
2018-07-28T20:19:41.194Z,101214.58
2018-07-28T20:22:10.067Z,101219.30
2018-07-28T20:24:39.048Z,101217.14
2018-07-28T20:27:07.901Z,101218.27
2018-07-28T20:29:36.986Z,101218.88
2018-07-28T20:32:06.136Z,101218.85
2018-07-28T20:34:35.096Z,101223.83
2018-07-28T20:37:04.083Z,101230.00
2018-07-28T20:39:33.075Z,101236.69
2018-07-28T20:42:02.064Z,101234.86
2018-07-28T20:44:31.153Z,101239.53
2018-07-28T20:47:00.164Z,101238.85
2018-07-28T20:49:29.191Z,101231.59
2018-07-28T20:51:58.055Z,101242.66
2018-07-28T20:54:27.120Z,101232.08
2018-07-28T20:56:56.030Z,101230.45
2018-07-28T20:59:24.959Z,101229.84
2018-07-28T21:01:53.902Z,101229.16
2018-07-28T21:04:22.914Z,101228.20
2018-07-28T21:06:51.893Z,101227.50
2018-07-28T21:09:20.804Z,101229.11
2018-07-28T21:11:49.641Z,101235.55
2018-07-28T21:14:18.579Z,101234.96
2018-07-28T21:16:47.563Z,101232.42
2018-07-28T21:19:16.549Z,101236.13
2018-07-28T21:21:45.470Z,101235.84
2018-07-28T21:24:14.341Z,101236.59
2018-07-28T21:26:43.232Z,101235.80
2018-07-28T21:29:12.299Z,101236.25
2018-07-28T21:31:41.307Z,101232.39
2018-07-28T21:34:10.204Z,101231.08
2018-07-28T21:36:39.203Z,101242.68
2018-07-28T21:39:09.754Z,101235.81
2018-07-28T21:41:38.643Z,101247.39
2018-07-28T21:44:07.626Z,101241.45
2018-07-28T21:46:36.504Z,101239.29
2018-07-28T21:49:05.417Z,101241.62
2018-07-28T21:51:34.289Z,101237.23
2018-07-28T21:54:03.161Z,101240.52
2018-07-28T21:56:32.169Z,101244.80
2018-07-28T21:59:01.158Z,101249.34
2018-07-28T22:01:30.166Z,101251.93
2018-07-28T22:04:02.499Z,101245.64
2018-07-28T22:06:32.554Z,101252.11
2018-07-28T22:09:01.555Z,101241.72
2018-07-28T22:11:30.596Z,101241.38
2018-07-28T22:13:59.570Z,101242.10
2018-07-28T22:16:28.540Z,101242.53
2018-07-28T22:18:57.508Z,101244.56
2018-07-28T22:21:26.503Z,101247.29
2018-07-28T22:23:55.615Z,101243.28
2018-07-28T22:26:24.646Z,101248.72
2018-07-28T22:28:53.595Z,101253.37
2018-07-28T22:31:22.560Z,101248.27
2018-07-28T22:33:51.556Z,101244.28
2018-07-28T22:36:20.596Z,101251.81
2018-07-28T22:38:49.550Z,101255.05
2018-07-28T22:41:18.534Z,101252.52
2018-07-28T22:43:47.542Z,101251.64
2018-07-28T22:46:16.495Z,101251.54
2018-07-28T22:48:45.438Z,101252.95
2018-07-28T22:51:14.415Z,101248.09
2018-07-28T22:53:43.310Z,101243.80
2018-07-28T22:56:12.406Z,101247.42
2018-07-28T22:58:41.364Z,101244.02
2018-07-28T23:01:10.366Z,101242.23
2018-07-28T23:03:39.266Z,101238.02
2018-07-28T23:06:08.290Z,101245.04
2018-07-28T23:08:37.247Z,101245.08
2018-07-28T23:11:06.254Z,101250.10
2018-07-28T23:13:35.188Z,101246.34
2018-07-28T23:16:04.155Z,101248.75
2018-07-28T23:18:33.127Z,101250.58
2018-07-28T23:21:02.403Z,101247.67
2018-07-28T23:23:31.396Z,101242.20
2018-07-28T23:26:00.340Z,101250.73
2018-07-28T23:28:29.325Z,101241.34
2018-07-28T23:30:59.054Z,101244.35
2018-07-28T23:33:27.981Z,101242.72
2018-07-28T23:35:56.937Z,101248.53
2018-07-28T23:38:25.925Z,101242.97
2018-07-28T23:40:54.933Z,101245.18
2018-07-28T23:43:24.622Z,101252.31
2018-07-28T23:45:53.595Z,101252.66
2018-07-28T23:48:23.620Z,101253.34
2018-07-28T23:50:52.624Z,101254.61
2018-07-28T23:53:21.723Z,101257.51
2018-07-28T23:55:50.744Z,101261.13
2018-07-28T23:58:19.716Z,101262.52
